createdAt,value
2023-02-18T00:00:23.662Z,10.06
2023-02-18T00:02:52.538Z,10.29
2023-02-18T00:05:19.380Z,9.91
2023-02-18T00:07:45.906Z,9.73
2023-02-18T00:10:15.276Z,9.70
2023-02-18T00:12:42.260Z,9.76
2023-02-18T00:15:09.724Z,9.46
2023-02-18T00:17:36.426Z,9.88
2023-02-18T00:20:04.496Z,9.69
2023-02-18T00:22:30.926Z,10.04
2023-02-18T00:24:57.335Z,9.73
2023-02-18T00:27:23.749Z,9.75
2023-02-18T00:29:50.199Z,9.68
2023-02-18T00:32:16.626Z,10.22
2023-02-18T00:34:43.438Z,9.73
2023-02-18T00:37:09.858Z,9.71
2023-02-18T00:39:36.290Z,9.25
2023-02-18T00:42:02.776Z,10.06
2023-02-18T00:44:29.219Z,9.40
2023-02-18T00:46:55.642Z,10.45
2023-02-18T00:49:22.097Z,10.13
2023-02-18T00:51:48.540Z,9.70
2023-02-18T00:54:14.962Z,9.20
2023-02-18T00:56:41.365Z,9.84
2023-02-18T00:59:07.829Z,9.96
2023-02-18T01:01:35.232Z,9.36
2023-02-18T01:04:01.804Z,9.31
2023-02-18T01:06:28.353Z,10.04
2023-02-18T01:08:54.809Z,9.22
2023-02-18T01:11:21.445Z,9.84
2023-02-18T01:13:48.255Z,9.81
2023-02-18T01:16:14.754Z,9.65
2023-02-18T01:18:41.241Z,9.87
2023-02-18T01:21:09.311Z,9.70
2023-02-18T01:23:37.823Z,9.63
2023-02-18T01:26:05.086Z,9.91
2023-02-18T01:28:31.849Z,9.37
2023-02-18T01:30:58.645Z,9.56
2023-02-18T01:33:25.073Z,9.49
2023-02-18T01:35:53.419Z,9.90
2023-02-18T01:38:19.864Z,9.35
2023-02-18T01:40:51.285Z,10.40
2023-02-18T01:43:20.050Z,9.73
2023-02-18T01:46:06.654Z,9.28
2023-02-18T01:49:00.111Z,9.77
2023-02-18T01:51:35.766Z,9.91
2023-02-18T01:54:02.194Z,10.21
2023-02-18T01:56:42.501Z,10.45
2023-02-18T01:59:16.805Z,10.48
2023-02-18T02:01:45.725Z,10.05
2023-02-18T02:04:13.151Z,10.19
2023-02-18T02:06:39.586Z,10.48
2023-02-18T02:09:10.035Z,9.90
2023-02-18T02:12:10.099Z,9.93
2023-02-18T02:15:30.801Z,10.11
2023-02-18T02:18:23.982Z,9.92
2023-02-18T02:21:08.806Z,9.53
2023-02-18T02:23:57.911Z,10.40
2023-02-18T02:26:49.272Z,9.72
2023-02-18T02:29:15.617Z,9.91
2023-02-18T02:31:45.000Z,10.18
2023-02-18T02:34:29.752Z,9.74
2023-02-18T02:37:18.673Z,10.54
2023-02-18T02:40:13.299Z,10.21
2023-02-18T02:42:58.568Z,9.40
2023-02-18T02:45:43.807Z,10.04
2023-02-18T02:48:29.844Z,9.97
2023-02-18T02:51:30.345Z,9.46
2023-02-18T02:54:10.061Z,10.39
2023-02-18T02:56:36.528Z,9.99
2023-02-18T02:59:08.176Z,9.98
2023-02-18T03:01:43.716Z,10.39
2023-02-18T03:04:35.031Z,9.93
2023-02-18T03:07:29.492Z,10.42
2023-02-18T03:10:22.061Z,10.00
2023-02-18T03:13:16.613Z,10.03
2023-02-18T03:16:05.224Z,10.50
2023-02-18T03:18:39.016Z,10.48
2023-02-18T03:21:29.493Z,9.89
2023-02-18T03:24:03.630Z,10.30
2023-02-18T03:26:34.364Z,10.03
2023-02-18T03:29:07.357Z,10.27
2023-02-18T03:31:38.452Z,10.44
2023-02-18T03:36:40.292Z,10.42
2023-02-18T03:39:15.070Z,10.00
2023-02-18T03:41:42.298Z,9.57
2023-02-18T03:44:10.651Z,10.53
2023-02-18T03:46:39.673Z,10.44
2023-02-18T03:49:06.423Z,9.82
2023-02-18T03:51:32.966Z,10.29
2023-02-18T03:53:59.399Z,9.94
2023-02-18T03:56:25.825Z,9.86
2023-02-18T03:58:52.215Z,9.92
2023-02-18T04:01:18.769Z,10.11
2023-02-18T04:03:45.182Z,10.25
2023-02-18T04:06:11.627Z,9.88
2023-02-18T04:08:38.062Z,10.47
2023-02-18T04:11:05.464Z,10.33
2023-02-18T04:13:32.096Z,10.75
2023-02-18T04:15:58.585Z,11.18
2023-02-18T04:18:25.120Z,11.04
2023-02-18T04:20:52.153Z,10.51
2023-02-18T04:23:18.564Z,10.72
2023-02-18T04:25:44.949Z,10.31
2023-02-18T04:28:15.201Z,11.39
2023-02-18T04:30:41.812Z,11.47
2023-02-18T04:33:08.352Z,10.67
2023-02-18T04:35:34.884Z,11.08
2023-02-18T04:38:01.310Z,11.28
2023-02-18T04:40:30.558Z,10.87
2023-02-18T04:42:58.768Z,10.97
2023-02-18T04:45:26.369Z,10.61
2023-02-18T04:47:53.525Z,10.27
2023-02-18T04:50:20.568Z,11.32
2023-02-18T04:52:47.470Z,10.82
2023-02-18T04:55:13.988Z,11.04
2023-02-18T04:57:40.421Z,10.42
2023-02-18T05:00:09.449Z,10.59
2023-02-18T05:02:35.867Z,10.33
2023-02-18T05:05:02.293Z,10.57
2023-02-18T05:07:28.672Z,10.74
2023-02-18T05:09:55.142Z,10.70
2023-02-18T05:12:21.601Z,11.19
2023-02-18T05:14:48.032Z,11.23
2023-02-18T05:17:14.561Z,10.85
2023-02-18T05:19:41.037Z,11.08
2023-02-18T05:22:07.477Z,10.91
2023-02-18T05:24:34.001Z,10.95
2023-02-18T05:27:00.496Z,10.11
2023-02-18T05:29:26.912Z,10.68
2023-02-18T05:31:53.530Z,11.29
2023-02-18T05:34:20.187Z,10.73
2023-02-18T05:36:46.719Z,10.74
2023-02-18T05:39:13.335Z,10.85
2023-02-18T05:41:39.750Z,10.73
2023-02-18T05:44:25.176Z,11.17
2023-02-18T05:46:51.664Z,10.79
2023-02-18T05:49:18.090Z,10.88
2023-02-18T05:51:44.552Z,10.83
2023-02-18T05:54:11.033Z,10.38
2023-02-18T05:56:37.477Z,10.35
2023-02-18T05:59:03.924Z,10.20
2023-02-18T06:01:30.426Z,10.03
2023-02-18T06:03:56.879Z,10.29
2023-02-18T06:06:23.802Z,10.52
2023-02-18T06:08:50.247Z,10.53
2023-02-18T06:11:16.649Z,10.83
2023-02-18T06:13:43.125Z,10.51
2023-02-18T06:16:10.029Z,10.95
2023-02-18T06:18:36.884Z,10.66
2023-02-18T06:21:03.849Z,10.81
2023-02-18T06:23:30.268Z,10.97
2023-02-18T06:25:56.852Z,10.65
2023-02-18T06:28:23.297Z,10.56
2023-02-18T06:30:50.422Z,10.57
2023-02-18T06:33:17.228Z,10.46
2023-02-18T06:36:02.646Z,10.89
2023-02-18T06:38:29.374Z,11.16
2023-02-18T06:40:55.810Z,11.00
2023-02-18T06:43:22.366Z,11.18
2023-02-18T06:45:48.768Z,11.23
2023-02-18T06:48:16.808Z,11.27
2023-02-18T06:50:43.612Z,11.10
2023-02-18T06:53:10.343Z,11.21
2023-02-18T06:55:36.899Z,11.24
2023-02-18T06:58:03.782Z,10.99
2023-02-18T07:00:30.487Z,11.22
2023-02-18T07:02:56.977Z,11.29
2023-02-18T07:05:23.540Z,11.20
2023-02-18T07:07:49.946Z,10.96
2023-02-18T07:10:16.481Z,10.99
2023-02-18T07:12:42.948Z,10.95
2023-02-18T07:15:09.839Z,11.24
2023-02-18T07:17:36.404Z,10.99
2023-02-18T07:20:04.491Z,11.13
2023-02-18T07:22:30.944Z,10.93
2023-02-18T07:24:57.424Z,11.17
2023-02-18T07:27:23.820Z,11.02
2023-02-18T07:29:50.567Z,11.00
2023-02-18T07:32:19.356Z,11.31
2023-02-18T07:34:46.109Z,11.22
2023-02-18T07:37:12.612Z,11.37
2023-02-18T07:39:43.199Z,11.48
2023-02-18T07:42:10.751Z,11.40
2023-02-18T07:44:38.135Z,11.57
2023-02-18T07:47:06.292Z,11.45
2023-02-18T07:49:33.105Z,11.28
2023-02-18T07:51:59.595Z,11.22
2023-02-18T07:54:26.509Z,11.46
2023-02-18T07:56:54.753Z,11.57
2023-02-18T07:59:21.241Z,11.70
2023-02-18T08:01:47.717Z,11.86
2023-02-18T08:04:15.361Z,11.94
2023-02-18T08:06:47.284Z,11.74
2023-02-18T08:09:14.712Z,11.43
2023-02-18T08:11:41.566Z,11.56
2023-02-18T08:14:08.147Z,11.74
2023-02-18T08:16:34.824Z,11.71
2023-02-18T08:19:03.499Z,11.80
2023-02-18T08:21:30.782Z,11.88
2023-02-18T08:23:59.198Z,12.02
2023-02-18T08:26:25.740Z,12.22
2023-02-18T08:28:52.165Z,12.28
2023-02-18T08:31:25.015Z,12.21
2023-02-18T08:33:52.612Z,11.94
2023-02-18T08:36:19.194Z,11.47
2023-02-18T08:38:46.213Z,11.60
2023-02-18T08:41:14.482Z,11.60
2023-02-18T08:43:41.396Z,11.89
2023-02-18T08:46:08.000Z,11.82
2023-02-18T08:48:42.400Z,12.01
2023-02-18T08:51:20.816Z,11.81
2023-02-18T08:53:47.420Z,12.34
2023-02-18T08:56:14.880Z,12.47
2023-02-18T08:58:41.990Z,12.67
2023-02-18T09:01:10.996Z,12.71
2023-02-18T09:03:38.107Z,12.70
2023-02-18T09:06:05.026Z,12.45
2023-02-18T09:08:31.506Z,12.43
2023-02-18T09:10:59.796Z,11.95
2023-02-18T09:13:27.106Z,12.07
2023-02-18T09:16:05.665Z,12.40
2023-02-18T09:18:32.392Z,11.81
2023-02-18T09:21:00.455Z,12.06
2023-02-18T09:23:29.488Z,12.38
2023-02-18T09:25:56.155Z,11.84
2023-02-18T09:28:23.364Z,12.21
2023-02-18T09:30:50.012Z,12.71
2023-02-18T09:33:17.191Z,12.28
2023-02-18T09:35:45.467Z,12.22
2023-02-18T09:38:14.375Z,12.62
2023-02-18T09:40:45.346Z,12.46
2023-02-18T09:43:30.625Z,12.36
2023-02-18T09:45:59.217Z,12.51
2023-02-18T09:48:29.127Z,12.14
2023-02-18T09:50:55.686Z,13.14
2023-02-18T09:53:24.086Z,13.02
2023-02-18T09:55:53.833Z,13.05
2023-02-18T09:58:30.157Z,12.68
2023-02-18T10:01:05.969Z,12.93
2023-02-18T10:03:32.685Z,12.69
2023-02-18T10:06:04.710Z,13.20
2023-02-18T10:08:39.957Z,13.06
2023-02-18T10:11:16.587Z,13.03
2023-02-18T10:13:44.184Z,13.25
2023-02-18T10:16:19.013Z,12.94
2023-02-18T10:18:49.187Z,13.05
2023-02-18T10:21:19.994Z,12.96
2023-02-18T10:24:12.085Z,13.34
2023-02-18T10:26:39.111Z,12.69
2023-02-18T10:29:14.645Z,12.99
2023-02-18T10:31:45.592Z,13.30
2023-02-18T10:34:39.434Z,13.08
2023-02-18T10:37:36.681Z,12.98
2023-02-18T10:40:35.431Z,12.95
2023-02-18T10:43:32.427Z,12.82
2023-02-18T10:46:04.902Z,12.73
2023-02-18T10:48:34.136Z,13.26
2023-02-18T10:51:08.719Z,12.49
2023-02-18T10:53:39.169Z,12.95
2023-02-18T10:56:06.886Z,13.21
2023-02-18T10:58:43.138Z,13.26
2023-02-18T11:01:23.363Z,13.51
2023-02-18T11:03:52.958Z,13.15
2023-02-18T11:06:31.306Z,12.75
2023-02-18T11:08:59.246Z,12.80
2023-02-18T11:11:31.340Z,13.65
2023-02-18T11:14:04.397Z,13.32
2023-02-18T11:16:45.412Z,13.38
2023-02-18T11:19:36.864Z,12.42
2023-02-18T11:22:20.258Z,13.04
2023-02-18T11:24:50.367Z,13.31
2023-02-18T11:27:28.554Z,13.08
2023-02-18T11:30:03.250Z,13.22
2023-02-18T11:32:30.958Z,12.61
2023-02-18T11:34:57.961Z,12.67
2023-02-18T11:37:24.599Z,12.17
2023-02-18T11:39:54.682Z,12.60
2023-02-18T11:42:24.670Z,13.25
2023-02-18T11:44:56.858Z,12.69
2023-02-18T11:47:37.073Z,12.63
2023-02-18T11:50:03.417Z,12.91
2023-02-18T11:52:34.468Z,12.97
2023-02-18T11:55:07.729Z,12.42
2023-02-18T11:57:38.626Z,12.59
2023-02-18T12:00:19.628Z,12.81
2023-02-18T12:02:47.243Z,12.73
2023-02-18T12:05:25.628Z,12.61
2023-02-18T12:08:05.602Z,12.61
2023-02-18T12:10:46.630Z,12.43
2023-02-18T12:13:34.522Z,12.69
2023-02-18T12:16:00.836Z,12.76
2023-02-18T12:18:58.219Z,12.49
2023-02-18T12:22:14.054Z,12.66
2023-02-18T12:25:09.444Z,12.25
2023-02-18T12:27:46.196Z,12.30
2023-02-18T12:30:36.108Z,12.53
2023-02-18T12:33:11.617Z,12.46
2023-02-18T12:35:52.139Z,12.49
2023-02-18T12:38:38.463Z,12.72
2023-02-18T12:41:29.550Z,12.66
2023-02-18T12:46:40.281Z,12.22
2023-02-18T12:49:43.136Z,12.67
2023-02-18T12:52:21.696Z,12.16
2023-02-18T12:55:03.404Z,12.09
2023-02-18T12:57:50.148Z,12.34
2023-02-18T13:00:52.511Z,12.27
2023-02-18T13:03:46.111Z,12.13
2023-02-18T13:06:25.254Z,12.37
2023-02-18T13:08:54.620Z,12.58
2023-02-18T13:11:46.203Z,12.18
2023-02-18T13:14:19.003Z,11.79
2023-02-18T13:16:48.662Z,12.59
2023-02-18T13:19:28.954Z,12.01
2023-02-18T13:22:16.588Z,12.31
2023-02-18T13:24:47.649Z,12.15
2023-02-18T13:27:42.010Z,12.10
2023-02-18T13:30:20.860Z,12.43
2023-02-18T13:33:11.883Z,12.66
2023-02-18T13:35:45.146Z,12.02
2023-02-18T13:38:45.911Z,12.26
2023-02-18T13:41:12.677Z,12.36
2023-02-18T13:43:39.843Z,13.07
2023-02-18T13:46:10.742Z,11.93
2023-02-18T13:48:45.754Z,12.50
2023-02-18T13:51:14.667Z,12.09
2023-02-18T13:53:44.494Z,12.70
2023-02-18T13:56:29.114Z,12.37
2023-02-18T13:59:01.648Z,12.04
2023-02-18T14:01:41.515Z,12.17
2023-02-18T14:04:36.968Z,12.49
2023-02-18T14:07:18.610Z,12.43
2023-02-18T14:09:46.250Z,12.46
2023-02-18T14:12:30.815Z,12.05
2023-02-18T14:14:58.843Z,12.74
2023-02-18T14:17:33.318Z,11.72
2023-02-18T14:19:59.691Z,12.25
2023-02-18T14:22:31.794Z,11.68
2023-02-18T14:25:11.016Z,11.91
2023-02-18T14:27:40.076Z,12.04
2023-02-18T14:30:22.067Z,11.79
2023-02-18T14:32:51.240Z,12.00
2023-02-18T14:35:32.622Z,11.88
2023-02-18T14:38:17.928Z,12.06
2023-02-18T14:40:53.514Z,12.06
2023-02-18T14:43:23.051Z,12.31
2023-02-18T14:46:00.379Z,12.41
2023-02-18T14:48:59.280Z,12.32
2023-02-18T14:51:29.508Z,11.81
2023-02-18T14:54:02.721Z,12.42
2023-02-18T14:56:29.441Z,12.49
2023-02-18T14:58:59.967Z,12.02
2023-02-18T15:01:31.266Z,11.49
2023-02-18T15:03:58.002Z,12.03
2023-02-18T15:06:36.819Z,12.03
2023-02-18T15:09:23.468Z,12.06
2023-02-18T15:11:55.136Z,12.00
2023-02-18T15:14:25.502Z,11.97
2023-02-18T15:16:53.302Z,12.34
2023-02-18T15:19:23.071Z,12.35
2023-02-18T15:21:51.261Z,12.15
2023-02-18T15:24:23.398Z,11.99
2023-02-18T15:26:51.997Z,12.59
2023-02-18T15:29:22.299Z,12.73
2023-02-18T15:31:49.919Z,12.63
2023-02-18T15:34:37.621Z,12.10
2023-02-18T15:37:13.587Z,11.78
2023-02-18T15:39:42.524Z,11.85
2023-02-18T15:42:34.051Z,12.03
2023-02-18T15:45:16.134Z,12.45
2023-02-18T15:47:45.232Z,12.41
2023-02-18T15:50:19.407Z,12.09
2023-02-18T15:52:46.142Z,11.78
2023-02-18T15:55:19.552Z,11.96
2023-02-18T15:57:46.295Z,12.41
2023-02-18T16:00:27.464Z,12.09
2023-02-18T16:03:13.140Z,12.33
2023-02-18T16:05:42.676Z,11.99
2023-02-18T16:08:35.364Z,12.64
2023-02-18T16:11:24.862Z,12.15
2023-02-18T16:13:54.121Z,11.89
2023-02-18T16:16:27.457Z,12.62
2023-02-18T16:18:54.033Z,12.37
2023-02-18T16:21:20.432Z,12.70
2023-02-18T16:23:59.469Z,12.77
2023-02-18T16:26:42.597Z,12.54
2023-02-18T16:29:15.584Z,12.00
2023-02-18T16:31:43.438Z,12.36
2023-02-18T16:34:09.944Z,12.20
2023-02-18T16:36:36.525Z,12.23
2023-02-18T16:39:03.507Z,12.50
2023-02-18T16:41:30.097Z,12.32
2023-02-18T16:43:57.245Z,12.06
2023-02-18T16:46:24.939Z,12.04
2023-02-18T16:48:56.793Z,12.24
2023-02-18T16:51:31.625Z,11.61
2023-02-18T16:53:58.362Z,11.50
2023-02-18T16:56:27.847Z,11.62
2023-02-18T16:58:54.275Z,11.73
2023-02-18T17:01:25.157Z,12.23
2023-02-18T17:03:52.497Z,11.90
2023-02-18T17:06:19.668Z,12.69
2023-02-18T17:08:46.174Z,11.81
2023-02-18T17:11:34.523Z,12.06
2023-02-18T17:14:04.834Z,12.19
2023-02-18T17:16:31.602Z,12.58
2023-02-18T17:18:58.105Z,11.85
2023-02-18T17:21:26.044Z,12.12
2023-02-18T17:23:52.730Z,12.22
2023-02-18T17:26:20.534Z,12.06
2023-02-18T17:28:47.388Z,12.36
2023-02-18T17:31:20.221Z,12.23
2023-02-18T17:33:47.433Z,12.53
2023-02-18T17:36:13.971Z,12.26
2023-02-18T17:38:40.456Z,12.08
2023-02-18T17:41:07.770Z,12.57
2023-02-18T17:43:34.933Z,12.35
2023-02-18T17:46:01.366Z,12.69
2023-02-18T17:48:28.600Z,12.12
2023-02-18T17:50:55.707Z,12.23
2023-02-18T17:53:22.493Z,12.24
2023-02-18T17:55:49.819Z,12.63
2023-02-18T17:58:17.580Z,12.27
2023-02-18T18:00:50.302Z,12.66
2023-02-18T18:03:17.293Z,12.25
2023-02-18T18:05:48.873Z,12.87
2023-02-18T18:08:15.703Z,12.18
2023-02-18T18:10:50.199Z,12.27
2023-02-18T18:13:26.515Z,12.24
2023-02-18T18:15:53.985Z,12.55
2023-02-18T18:18:21.865Z,11.84
2023-02-18T18:20:52.843Z,12.08
2023-02-18T18:23:21.115Z,12.04
2023-02-18T18:25:53.344Z,11.93
2023-02-18T18:28:20.574Z,12.43
2023-02-18T18:30:49.828Z,12.01
2023-02-18T18:33:28.830Z,12.30
2023-02-18T18:35:57.486Z,12.65
2023-02-18T18:38:26.217Z,12.34
2023-02-18T18:40:53.492Z,12.36
2023-02-18T18:43:40.429Z,12.58
2023-02-18T18:46:06.931Z,12.72
2023-02-18T18:48:33.394Z,13.12
2023-02-18T18:51:01.412Z,12.26
2023-02-18T18:53:30.992Z,12.36
2023-02-18T18:56:03.652Z,12.91
2023-02-18T18:58:30.568Z,12.62
2023-02-18T19:00:59.868Z,12.01
2023-02-18T19:03:28.276Z,12.57
2023-02-18T19:05:55.294Z,12.14
2023-02-18T19:08:22.020Z,12.32
2023-02-18T19:10:50.883Z,12.23
2023-02-18T19:13:22.839Z,12.12
2023-02-18T19:15:51.483Z,12.30
2023-02-18T19:18:20.636Z,12.07
2023-02-18T19:20:48.290Z,12.57
2023-02-18T19:23:15.043Z,12.34
2023-02-18T19:25:42.796Z,12.54
2023-02-18T19:28:13.622Z,11.89
2023-02-18T19:30:42.241Z,12.02
2023-02-18T19:33:11.181Z,12.64
2023-02-18T19:35:39.765Z,11.84
2023-02-18T19:38:14.056Z,12.96
2023-02-18T19:40:40.932Z,12.30
2023-02-18T19:43:07.850Z,13.04
2023-02-18T19:45:41.818Z,12.23
2023-02-18T19:48:09.829Z,12.56
2023-02-18T19:50:36.264Z,12.83
2023-02-18T19:53:02.707Z,12.11
2023-02-18T19:55:29.252Z,12.11
2023-02-18T19:57:55.705Z,12.16
2023-02-18T20:00:22.654Z,12.88
2023-02-18T20:02:49.752Z,11.64
2023-02-18T20:05:16.552Z,12.34
2023-02-18T20:07:45.975Z,12.32
2023-02-18T20:10:14.781Z,12.06
2023-02-18T20:12:41.269Z,12.13
2023-02-18T20:15:08.330Z,12.03
2023-02-18T20:17:35.145Z,12.05
2023-02-18T20:20:01.654Z,12.19
2023-02-18T20:22:28.265Z,12.17
2023-02-18T20:24:54.695Z,12.04
2023-02-18T20:27:21.205Z,12.70
2023-02-18T20:29:47.628Z,12.39
2023-02-18T20:32:14.098Z,12.00
2023-02-18T20:34:40.641Z,12.58
2023-02-18T20:37:07.037Z,12.33
2023-02-18T20:39:33.512Z,12.24
2023-02-18T20:42:08.034Z,11.88
2023-02-18T20:44:41.065Z,11.84
2023-02-18T20:47:07.616Z,12.20
2023-02-18T20:49:35.485Z,12.77
2023-02-18T20:52:02.352Z,12.39
2023-02-18T20:54:29.416Z,12.21
2023-02-18T20:56:55.960Z,12.73
2023-02-18T20:59:22.483Z,12.03
2023-02-18T21:01:49.572Z,11.99
2023-02-18T21:04:19.056Z,12.19
2023-02-18T21:06:46.409Z,12.56
2023-02-18T21:09:14.402Z,11.80
2023-02-18T21:11:41.717Z,11.85
2023-02-18T21:14:08.222Z,12.22
2023-02-18T21:16:41.062Z,11.77
2023-02-18T21:19:10.623Z,12.28
2023-02-18T21:21:37.240Z,12.72
2023-02-18T21:24:04.044Z,11.98
2023-02-18T21:26:30.560Z,11.66
2023-02-18T21:29:00.951Z,11.99
2023-02-18T21:31:31.260Z,12.39
2023-02-18T21:33:58.092Z,12.24
2023-02-18T21:36:26.155Z,12.14
2023-02-18T21:38:54.513Z,12.17
2023-02-18T21:41:21.484Z,11.84
2023-02-18T21:43:48.513Z,12.03
2023-02-18T21:46:18.363Z,12.35
2023-02-18T21:49:05.468Z,11.90
2023-02-18T21:51:53.699Z,11.84
2023-02-18T21:54:32.300Z,11.74
2023-02-18T21:57:00.382Z,11.92
2023-02-18T21:59:29.106Z,12.65
2023-02-18T22:01:56.550Z,12.06
2023-02-18T22:04:23.520Z,12.07
2023-02-18T22:06:50.002Z,11.81
2023-02-18T22:09:16.681Z,11.67
2023-02-18T22:11:43.193Z,11.60
2023-02-18T22:14:11.367Z,11.94
2023-02-18T22:16:38.272Z,12.38
2023-02-18T22:19:05.417Z,12.01
2023-02-18T22:21:32.009Z,11.92
2023-02-18T22:23:58.535Z,12.46
2023-02-18T22:26:25.077Z,11.82
2023-02-18T22:28:56.445Z,11.73
2023-02-18T22:31:23.326Z,12.38
2023-02-18T22:33:52.081Z,11.81
2023-02-18T22:36:20.841Z,11.72
2023-02-18T22:38:47.861Z,12.06
2023-02-18T22:41:16.625Z,11.36
2023-02-18T22:43:43.197Z,11.86
2023-02-18T22:46:13.270Z,11.80
2023-02-18T22:48:40.186Z,12.20
2023-02-18T22:51:13.142Z,11.71
2023-02-18T22:53:41.386Z,12.46
2023-02-18T22:56:10.582Z,12.87
2023-02-18T22:58:37.042Z,12.62
2023-02-18T23:01:04.535Z,12.35
2023-02-18T23:03:31.123Z,12.81
2023-02-18T23:06:05.464Z,12.33
2023-02-18T23:08:33.296Z,12.01
2023-02-18T23:11:06.510Z,12.51
2023-02-18T23:13:33.601Z,11.93
2023-02-18T23:16:02.319Z,11.90
2023-02-18T23:18:30.029Z,12.42
2023-02-18T23:21:20.257Z,12.50
2023-02-18T23:23:48.156Z,11.44
2023-02-18T23:26:14.926Z,11.92
2023-02-18T23:28:47.664Z,12.65
2023-02-18T23:31:21.426Z,11.65
2023-02-18T23:33:52.374Z,12.72
2023-02-18T23:36:21.574Z,12.25
2023-02-18T23:38:49.809Z,12.42
2023-02-18T23:41:16.589Z,12.32
2023-02-18T23:43:43.666Z,11.97
2023-02-18T23:46:10.262Z,12.55
2023-02-18T23:48:38.412Z,12.74
2023-02-18T23:51:07.069Z,13.21
2023-02-18T23:53:35.275Z,12.87
2023-02-18T23:56:10.697Z,12.96
2023-02-18T23:58:37.723Z,13.21
